createdAt,value
2024-01-16T00:00:47.954Z,3.17
2024-01-16T00:03:15.111Z,4.20
2024-01-16T00:05:42.246Z,3.90
2024-01-16T00:08:09.477Z,4.60
2024-01-16T00:10:36.695Z,2.75
2024-01-16T00:13:03.859Z,2.97
2024-01-16T00:15:31.303Z,4.15
2024-01-16T00:17:58.571Z,7.72
2024-01-16T00:20:26.981Z,5.60
2024-01-16T00:22:54.344Z,5.57
2024-01-16T00:25:22.600Z,6.05
2024-01-16T00:27:49.946Z,5.60
2024-01-16T00:30:17.249Z,8.10
2024-01-16T00:32:44.599Z,4.53
2024-01-16T00:35:11.956Z,4.97
2024-01-16T00:37:39.060Z,2.83
2024-01-16T00:40:07.051Z,2.05
2024-01-16T00:42:34.236Z,2.38
2024-01-16T00:45:02.046Z,2.72
2024-01-16T00:47:29.282Z,7.35
2024-01-16T00:49:56.507Z,3.95
2024-01-16T00:52:23.764Z,2.80
2024-01-16T00:54:50.821Z,3.78
2024-01-16T00:57:20.835Z,2.15
2024-01-16T00:59:48.277Z,3.00
2024-01-16T01:02:16.393Z,3.28
2024-01-16T01:04:44.492Z,2.42
2024-01-16T01:07:15.365Z,3.88
2024-01-16T01:09:42.726Z,4.63
2024-01-16T01:12:10.587Z,6.22
2024-01-16T01:14:37.955Z,5.03
2024-01-16T01:17:05.457Z,6.88
2024-01-16T01:19:32.724Z,6.55
2024-01-16T01:22:00.039Z,5.43
2024-01-16T01:24:27.242Z,3.90
2024-01-16T01:26:54.560Z,3.30
2024-01-16T01:29:21.854Z,4.10
2024-01-16T01:31:49.675Z,3.47
2024-01-16T01:34:17.267Z,5.60
2024-01-16T01:36:44.840Z,4.13
2024-01-16T01:39:12.477Z,3.78
2024-01-16T01:41:40.556Z,3.42
2024-01-16T01:44:08.314Z,5.10
2024-01-16T01:46:37.122Z,3.88
2024-01-16T01:49:05.089Z,4.53
2024-01-16T01:51:32.706Z,4.05
2024-01-16T01:54:02.747Z,5.95
2024-01-16T01:56:30.121Z,3.72
2024-01-16T01:59:00.167Z,4.20
2024-01-16T02:01:29.188Z,4.35
2024-01-16T02:03:58.025Z,4.57
2024-01-16T02:06:25.675Z,4.63
2024-01-16T02:08:53.343Z,5.45
2024-01-16T02:11:20.872Z,7.22
2024-01-16T02:13:48.188Z,3.83
2024-01-16T02:16:22.018Z,6.45
2024-01-16T02:18:49.721Z,5.82
2024-01-16T02:21:22.374Z,4.78
2024-01-16T02:23:50.059Z,6.78
2024-01-16T02:26:18.506Z,5.78
2024-01-16T02:28:45.773Z,6.28
2024-01-16T02:31:13.895Z,6.20
2024-01-16T02:33:41.372Z,4.90
2024-01-16T02:36:08.757Z,6.30
2024-01-16T02:38:36.029Z,5.05
2024-01-16T02:41:03.341Z,4.93
2024-01-16T02:43:30.562Z,6.15
2024-01-16T02:45:57.811Z,6.88
2024-01-16T02:48:25.299Z,7.10
2024-01-16T02:50:52.517Z,6.65
2024-01-16T02:53:19.791Z,8.05
2024-01-16T02:55:47.073Z,6.07
2024-01-16T02:58:14.247Z,5.10
2024-01-16T03:00:41.493Z,5.43
2024-01-16T03:03:09.570Z,7.22
2024-01-16T03:05:37.433Z,6.72
2024-01-16T03:08:05.029Z,4.60
2024-01-16T03:10:32.314Z,4.75
2024-01-16T03:12:59.463Z,6.75
2024-01-16T03:15:27.056Z,6.00
2024-01-16T03:17:54.451Z,6.93
2024-01-16T03:20:21.692Z,6.32
2024-01-16T03:22:48.814Z,5.68
2024-01-16T03:25:17.127Z,5.95
2024-01-16T03:27:45.316Z,5.82
2024-01-16T03:30:12.762Z,3.67
2024-01-16T03:32:40.647Z,4.28
2024-01-16T03:35:08.577Z,4.43
2024-01-16T03:37:35.965Z,5.47
2024-01-16T03:40:03.413Z,5.57
2024-01-16T03:42:30.629Z,4.60
2024-01-16T03:44:58.232Z,5.95
2024-01-16T03:47:25.582Z,5.70
2024-01-16T03:49:53.627Z,5.63
2024-01-16T03:52:20.875Z,4.40
2024-01-16T03:54:47.969Z,5.57
2024-01-16T03:57:15.190Z,5.03
2024-01-16T03:59:42.648Z,4.43
2024-01-16T04:02:09.830Z,3.88
2024-01-16T04:04:37.052Z,8.52
2024-01-16T04:07:04.336Z,21.90
2024-01-16T04:09:31.583Z,20.92
2024-01-16T04:11:58.728Z,26.02
2024-01-16T04:14:26.024Z,27.35
2024-01-16T04:16:53.617Z,37.72
2024-01-16T04:19:21.088Z,40.05
2024-01-16T04:21:48.352Z,39.80
2024-01-16T04:24:15.513Z,48.42
2024-01-16T04:26:42.909Z,52.88
2024-01-16T04:29:11.043Z,49.08
2024-01-16T04:31:42.694Z,43.25
2024-01-16T04:34:10.060Z,38.67
2024-01-16T04:36:37.185Z,36.08
2024-01-16T04:39:06.975Z,36.75
2024-01-16T04:41:34.231Z,32.03
2024-01-16T04:44:01.765Z,31.55
2024-01-16T04:46:28.944Z,33.58
2024-01-16T04:48:56.761Z,26.75
2024-01-16T04:51:24.010Z,30.67
2024-01-16T04:53:51.296Z,32.13
2024-01-16T04:56:18.737Z,33.92
2024-01-16T04:58:46.035Z,34.92
2024-01-16T05:01:14.508Z,33.28
2024-01-16T05:03:41.779Z,31.75
2024-01-16T05:06:18.186Z,30.75
2024-01-16T05:08:45.424Z,30.02
2024-01-16T05:11:13.013Z,29.45
2024-01-16T05:13:40.389Z,32.63
2024-01-16T05:16:07.827Z,35.58
2024-01-16T05:18:35.387Z,33.55
2024-01-16T05:21:03.734Z,28.23
2024-01-16T05:23:30.956Z,38.20
2024-01-16T05:25:58.252Z,39.83
2024-01-16T05:28:25.703Z,39.15
2024-01-16T05:30:53.053Z,36.90
2024-01-16T05:33:20.382Z,34.00
2024-01-16T05:35:47.701Z,27.23
2024-01-16T05:38:14.902Z,28.90
2024-01-16T05:40:43.027Z,36.08
2024-01-16T05:43:10.298Z,35.03
2024-01-16T05:45:37.429Z,41.83
2024-01-16T05:48:05.061Z,40.25
2024-01-16T05:50:32.547Z,47.05
2024-01-16T05:52:59.723Z,42.50
2024-01-16T05:55:26.795Z,41.30
2024-01-16T05:57:53.949Z,44.38
2024-01-16T06:00:23.981Z,46.33
2024-01-16T06:02:51.162Z,48.60
2024-01-16T06:05:18.384Z,48.58
2024-01-16T06:07:45.735Z,45.47
2024-01-16T06:10:15.952Z,40.97
2024-01-16T06:12:43.780Z,41.75
2024-01-16T06:15:12.751Z,45.22
2024-01-16T06:17:40.219Z,39.20
2024-01-16T06:20:08.157Z,43.80
2024-01-16T06:22:36.566Z,44.30
2024-01-16T06:25:03.850Z,41.20
2024-01-16T06:27:31.069Z,42.35
2024-01-16T06:29:58.333Z,46.25
2024-01-16T06:32:25.555Z,36.20
2024-01-16T06:34:52.972Z,41.45
2024-01-16T06:37:20.254Z,37.85
2024-01-16T06:39:47.896Z,47.53
2024-01-16T06:42:15.199Z,50.22
2024-01-16T06:44:42.437Z,43.13
2024-01-16T06:47:09.636Z,45.20
2024-01-16T06:49:37.082Z,35.47
2024-01-16T06:52:04.494Z,35.13
2024-01-16T06:54:31.720Z,44.17
2024-01-16T06:56:58.958Z,40.75
2024-01-16T06:59:26.224Z,44.03
2024-01-16T07:01:53.439Z,70.32
2024-01-16T07:04:20.521Z,58.58
2024-01-16T07:06:48.632Z,58.03
2024-01-16T07:09:17.307Z,58.15
2024-01-16T07:11:44.616Z,46.15
2024-01-16T07:14:11.893Z,42.95
2024-01-16T07:16:39.486Z,48.25
2024-01-16T07:19:07.005Z,45.35
2024-01-16T07:21:35.066Z,45.85
2024-01-16T07:24:02.301Z,43.67
2024-01-16T07:26:31.107Z,42.85
2024-01-16T07:28:58.519Z,43.10
2024-01-16T07:31:26.857Z,34.53
2024-01-16T07:33:54.264Z,40.08
2024-01-16T07:36:21.538Z,42.45
2024-01-16T07:38:49.313Z,39.10
2024-01-16T07:41:16.638Z,48.25
2024-01-16T07:43:45.514Z,57.65
2024-01-16T07:46:13.884Z,58.63
2024-01-16T07:48:41.175Z,59.85
2024-01-16T07:51:08.401Z,65.18
2024-01-16T07:53:35.542Z,62.92
2024-01-16T07:56:02.808Z,63.15
2024-01-16T07:58:29.872Z,60.28
2024-01-16T08:00:57.058Z,63.97
2024-01-16T08:03:24.279Z,64.22
2024-01-16T08:05:51.571Z,72.40
2024-01-16T08:08:18.737Z,70.97
2024-01-16T08:10:46.057Z,76.63
2024-01-16T08:13:13.155Z,81.32
2024-01-16T08:15:40.363Z,79.10
2024-01-16T08:18:07.884Z,77.82
2024-01-16T08:20:35.169Z,78.55
2024-01-16T08:23:02.348Z,82.00
2024-01-16T08:25:29.434Z,109.50
2024-01-16T08:27:56.553Z,91.82
2024-01-16T08:30:24.233Z,79.82
2024-01-16T08:32:51.624Z,98.63
2024-01-16T08:35:19.118Z,100.70
2024-01-16T08:37:46.309Z,104.03
2024-01-16T08:40:13.408Z,111.35
2024-01-16T08:42:40.641Z,121.82
2024-01-16T08:45:08.223Z,109.13
2024-01-16T08:47:35.719Z,132.63
2024-01-16T08:50:03.588Z,123.95
2024-01-16T08:52:30.733Z,149.20
2024-01-16T08:54:58.946Z,156.45
2024-01-16T08:57:27.865Z,155.30
2024-01-16T08:59:56.669Z,146.02
2024-01-16T09:02:24.036Z,149.13
2024-01-16T09:04:51.891Z,135.65
2024-01-16T09:07:19.979Z,169.68
2024-01-16T09:09:47.375Z,140.63
2024-01-16T09:12:14.890Z,145.23
2024-01-16T09:14:42.732Z,141.77
2024-01-16T09:17:10.177Z,138.77
2024-01-16T09:19:37.687Z,143.93
2024-01-16T09:22:05.092Z,131.90
2024-01-16T09:24:32.501Z,141.75
2024-01-16T09:26:59.776Z,151.30
2024-01-16T09:29:27.011Z,144.20
2024-01-16T09:31:54.201Z,153.25
2024-01-16T09:34:21.463Z,153.55
2024-01-16T09:36:48.564Z,149.43
2024-01-16T09:39:19.178Z,142.10
2024-01-16T09:41:47.322Z,161.18
2024-01-16T09:44:15.166Z,164.30
2024-01-16T09:46:47.693Z,161.25
2024-01-16T09:49:16.775Z,154.20
2024-01-16T09:51:45.150Z,189.55
2024-01-16T09:54:12.430Z,197.55
2024-01-16T09:56:47.153Z,142.98
2024-01-16T09:59:18.634Z,134.38
2024-01-16T10:01:46.781Z,148.00
2024-01-16T10:04:14.724Z,147.07
2024-01-16T10:06:47.225Z,129.77
2024-01-16T10:09:14.569Z,148.00
2024-01-16T10:11:42.470Z,145.95
2024-01-16T10:14:10.735Z,157.18
2024-01-16T10:16:58.334Z,141.65
2024-01-16T10:19:35.151Z,178.48
2024-01-16T10:22:10.109Z,174.55
2024-01-16T10:24:37.229Z,176.80
2024-01-16T10:27:04.866Z,150.68
2024-01-16T10:29:43.252Z,150.65
2024-01-16T10:32:15.068Z,147.02
2024-01-16T10:34:43.623Z,142.18
2024-01-16T10:37:11.028Z,139.75
2024-01-16T10:39:43.651Z,144.38
2024-01-16T10:44:39.501Z,150.55
2024-01-16T10:47:17.496Z,146.23
2024-01-16T10:49:46.630Z,130.60
2024-01-16T10:52:14.026Z,131.65
2024-01-16T10:54:44.200Z,107.57
2024-01-16T10:57:14.387Z,104.35
2024-01-16T10:59:49.872Z,108.20
2024-01-16T11:02:24.383Z,108.30
2024-01-16T11:04:54.160Z,101.00
2024-01-16T11:07:23.710Z,111.40
2024-01-16T11:09:51.389Z,105.43
2024-01-16T11:12:20.917Z,96.45
2024-01-16T11:14:53.374Z,103.03
2024-01-16T11:17:21.849Z,99.35
2024-01-16T11:20:07.210Z,104.10
2024-01-16T11:22:42.681Z,95.38
2024-01-16T11:25:14.860Z,97.22
2024-01-16T11:27:43.806Z,97.25
2024-01-16T11:30:13.006Z,88.72
2024-01-16T11:32:43.067Z,70.10
2024-01-16T11:35:10.765Z,80.88
2024-01-16T11:37:40.677Z,92.95
2024-01-16T11:40:22.745Z,67.35
2024-01-16T11:42:51.415Z,79.88
2024-01-16T11:45:31.382Z,93.18
2024-01-16T11:48:16.191Z,79.72
2024-01-16T11:50:44.497Z,61.85
2024-01-16T11:53:11.768Z,56.05
2024-01-16T11:55:53.826Z,62.95
2024-01-16T11:58:58.440Z,57.47
2024-01-16T12:01:27.404Z,66.07
2024-01-16T12:04:06.990Z,68.95
2024-01-16T12:06:36.568Z,70.18
2024-01-16T12:09:16.961Z,54.28
2024-01-16T12:11:46.641Z,55.67
2024-01-16T12:14:14.061Z,56.55
2024-01-16T12:16:41.440Z,45.92
2024-01-16T12:19:13.345Z,48.47
2024-01-16T12:21:45.597Z,44.22
2024-01-16T12:24:16.020Z,45.28
2024-01-16T12:26:45.901Z,51.75
2024-01-16T12:29:13.372Z,49.50
2024-01-16T12:31:40.611Z,49.45
2024-01-16T12:34:11.519Z,53.75
2024-01-16T12:36:39.689Z,54.97
2024-01-16T12:39:08.206Z,48.58
2024-01-16T12:41:43.798Z,51.75
2024-01-16T12:44:16.399Z,45.13
2024-01-16T12:47:05.206Z,35.38
2024-01-16T12:49:33.026Z,33.80
2024-01-16T12:52:19.640Z,42.50
2024-01-16T12:54:47.359Z,31.60
2024-01-16T12:57:21.835Z,28.38
2024-01-16T12:59:50.540Z,26.08
2024-01-16T13:02:26.076Z,27.50
2024-01-16T13:05:01.401Z,37.72
2024-01-16T13:07:29.280Z,36.13
2024-01-16T13:10:10.329Z,36.05
2024-01-16T13:12:37.995Z,36.08
2024-01-16T13:15:08.416Z,32.95
2024-01-16T13:17:36.469Z,33.78
2024-01-16T13:20:05.742Z,30.17
2024-01-16T13:22:40.710Z,33.33
2024-01-16T13:25:12.836Z,38.47
2024-01-16T13:27:39.916Z,31.35
2024-01-16T13:30:07.954Z,37.00
2024-01-16T13:32:38.830Z,35.58
2024-01-16T13:35:10.397Z,39.47
2024-01-16T13:37:42.471Z,38.00
2024-01-16T13:40:11.272Z,36.25
2024-01-16T13:42:39.845Z,40.40
2024-01-16T13:45:07.409Z,34.95
2024-01-16T13:47:34.696Z,32.97
2024-01-16T13:50:04.750Z,30.13
2024-01-16T13:52:32.025Z,31.17
2024-01-16T13:54:59.141Z,40.38
2024-01-16T13:57:26.241Z,36.30
2024-01-16T13:59:53.629Z,27.98
2024-01-16T14:02:20.827Z,29.88
2024-01-16T14:04:47.973Z,30.95
2024-01-16T14:07:15.169Z,31.13
2024-01-16T14:09:44.908Z,28.10
2024-01-16T14:12:13.646Z,30.15
2024-01-16T14:14:42.963Z,31.80
2024-01-16T14:17:11.195Z,34.03
2024-01-16T14:19:39.889Z,29.77
2024-01-16T14:22:07.584Z,29.98
2024-01-16T14:24:35.262Z,31.35
2024-01-16T14:27:02.494Z,29.75
2024-01-16T14:29:30.365Z,37.47
2024-01-16T14:31:58.648Z,28.92
2024-01-16T14:34:27.290Z,35.40
2024-01-16T14:36:55.462Z,39.28
2024-01-16T14:39:32.167Z,39.45
2024-01-16T14:42:03.714Z,43.45
2024-01-16T14:44:31.090Z,43.60
2024-01-16T14:46:58.368Z,41.78
2024-01-16T14:49:25.737Z,34.00
2024-01-16T14:51:53.125Z,36.47
2024-01-16T14:54:20.668Z,38.55
2024-01-16T14:56:47.992Z,39.47
2024-01-16T14:59:16.436Z,38.08
2024-01-16T15:01:45.777Z,41.33
2024-01-16T15:04:13.508Z,55.05
2024-01-16T15:06:41.171Z,53.90
2024-01-16T15:09:11.688Z,60.38
2024-01-16T15:11:39.376Z,58.20
2024-01-16T15:14:06.735Z,59.08
2024-01-16T15:16:33.902Z,61.88
2024-01-16T15:19:01.477Z,51.83
2024-01-16T15:21:28.828Z,55.35
2024-01-16T15:23:56.030Z,58.30
2024-01-16T15:26:23.487Z,56.88
2024-01-16T15:28:51.039Z,63.58
2024-01-16T15:31:19.297Z,57.75
2024-01-16T15:33:46.859Z,67.05
2024-01-16T15:36:14.211Z,55.03
2024-01-16T15:38:41.590Z,51.80
2024-01-16T15:41:08.954Z,48.38
2024-01-16T15:43:36.614Z,49.03
2024-01-16T15:46:03.918Z,46.17
2024-01-16T15:48:35.662Z,49.60
2024-01-16T15:51:05.286Z,51.08
2024-01-16T15:53:36.703Z,42.25
2024-01-16T15:56:07.882Z,48.08
2024-01-16T15:58:35.622Z,57.70
2024-01-16T16:01:03.439Z,48.30
2024-01-16T16:03:32.107Z,45.95
2024-01-16T16:05:59.579Z,44.45
2024-01-16T16:08:27.802Z,47.47
2024-01-16T16:10:55.130Z,78.65
2024-01-16T16:13:22.546Z,61.50
2024-01-16T16:15:49.686Z,54.33
2024-01-16T16:18:16.959Z,49.60
2024-01-16T16:20:44.291Z,50.10
2024-01-16T16:23:11.604Z,43.10
2024-01-16T16:25:47.342Z,50.15
2024-01-16T16:28:15.136Z,74.72
2024-01-16T16:30:42.429Z,70.45
2024-01-16T16:33:10.466Z,57.42
2024-01-16T16:35:37.767Z,51.90
2024-01-16T16:38:06.250Z,52.80
2024-01-16T16:40:33.749Z,51.70
2024-01-16T16:43:01.418Z,56.25
2024-01-16T16:45:28.660Z,49.40
2024-01-16T16:47:56.042Z,52.08
2024-01-16T16:50:23.528Z,60.15
2024-01-16T16:52:51.235Z,67.00
2024-01-16T16:55:18.354Z,57.50
2024-01-16T16:57:45.741Z,63.60
2024-01-16T17:00:15.088Z,63.20
2024-01-16T17:02:42.533Z,59.55
2024-01-16T17:05:10.956Z,59.92
2024-01-16T17:07:38.269Z,58.10
2024-01-16T17:10:05.979Z,60.05
2024-01-16T17:12:33.551Z,60.10
2024-01-16T17:15:00.842Z,64.57
2024-01-16T17:17:30.442Z,57.15
2024-01-16T17:19:58.214Z,57.78
2024-01-16T17:22:25.353Z,58.47
2024-01-16T17:24:52.425Z,60.42
2024-01-16T17:27:19.905Z,55.00
2024-01-16T17:29:47.066Z,59.95
2024-01-16T17:32:14.170Z,56.50
2024-01-16T17:34:41.484Z,83.45
2024-01-16T17:37:08.938Z,78.47
2024-01-16T17:39:36.156Z,79.05
2024-01-16T17:42:05.015Z,92.18
2024-01-16T17:44:38.283Z,87.43
2024-01-16T17:47:05.772Z,90.03
2024-01-16T17:49:34.736Z,101.70
2024-01-16T17:52:05.006Z,106.80
2024-01-16T17:54:32.249Z,102.15
2024-01-16T17:56:59.565Z,87.35
2024-01-16T17:59:32.190Z,75.45
2024-01-16T18:01:59.546Z,81.32
2024-01-16T18:04:27.066Z,93.03
2024-01-16T18:06:54.292Z,99.28
2024-01-16T18:09:22.159Z,86.53
2024-01-16T18:11:59.512Z,88.55
2024-01-16T18:14:28.002Z,93.70
2024-01-16T18:16:55.402Z,93.72
2024-01-16T18:19:28.540Z,81.57
2024-01-16T18:24:24.147Z,81.78
2024-01-16T18:26:51.650Z,86.05
2024-01-16T18:29:21.873Z,81.95
2024-01-16T18:31:50.100Z,83.57
2024-01-16T18:34:23.276Z,88.22
2024-01-16T18:39:20.920Z,95.30
2024-01-16T18:41:52.996Z,113.97
2024-01-16T18:44:21.095Z,106.20
2024-01-16T18:46:48.304Z,99.00
2024-01-16T18:49:16.989Z,103.93
2024-01-16T18:51:44.506Z,100.50
2024-01-16T18:54:12.408Z,95.38
2024-01-16T18:56:39.885Z,75.38
2024-01-16T18:59:08.060Z,79.38
2024-01-16T19:01:36.119Z,67.63
2024-01-16T19:04:04.673Z,71.47
2024-01-16T19:06:32.010Z,79.38
2024-01-16T19:09:00.441Z,140.20
2024-01-16T19:11:28.467Z,150.48
2024-01-16T19:13:55.677Z,171.18
2024-01-16T19:16:24.261Z,175.82
2024-01-16T19:18:51.536Z,164.82
2024-01-16T19:21:18.839Z,163.70
2024-01-16T19:23:45.955Z,192.45
2024-01-16T19:26:13.532Z,175.25
2024-01-16T19:28:40.722Z,187.30
2024-01-16T19:31:08.031Z,184.57
2024-01-16T19:33:35.455Z,189.98
2024-01-16T19:36:05.139Z,183.20
2024-01-16T19:38:33.391Z,193.93
2024-01-16T19:41:00.574Z,204.68
2024-01-16T19:43:28.697Z,177.63
2024-01-16T19:45:55.919Z,194.13
2024-01-16T19:48:23.741Z,189.82
2024-01-16T19:50:50.995Z,180.68
2024-01-16T19:53:18.401Z,192.57
2024-01-16T19:55:46.122Z,199.25
2024-01-16T19:58:13.504Z,167.07
2024-01-16T20:00:41.084Z,189.60
2024-01-16T20:03:08.811Z,186.38
2024-01-16T20:05:43.823Z,196.80
2024-01-16T20:08:11.385Z,208.80
2024-01-16T20:10:42.179Z,221.80
2024-01-16T20:13:09.272Z,244.93
2024-01-16T20:15:37.173Z,251.30
2024-01-16T20:18:06.842Z,220.73
2024-01-16T20:20:35.325Z,252.30
2024-01-16T20:23:05.621Z,240.10
2024-01-16T20:25:32.882Z,219.80
2024-01-16T20:28:02.856Z,212.82
2024-01-16T20:30:29.958Z,225.15
2024-01-16T20:32:57.257Z,249.98
2024-01-16T20:35:26.099Z,235.18
2024-01-16T20:37:53.212Z,245.77
2024-01-16T20:40:21.111Z,245.90
2024-01-16T20:42:48.189Z,213.35
2024-01-16T20:45:15.366Z,201.02
2024-01-16T20:47:42.593Z,180.60
2024-01-16T20:50:12.458Z,182.95
2024-01-16T20:52:39.677Z,173.52
2024-01-16T20:55:08.746Z,266.05
2024-01-16T20:57:36.858Z,208.43
2024-01-16T21:00:10.926Z,189.30
2024-01-16T21:02:40.511Z,188.10
2024-01-16T21:05:08.501Z,171.75
2024-01-16T21:07:36.008Z,180.07
2024-01-16T21:10:03.485Z,208.25
2024-01-16T21:12:30.743Z,203.52
2024-01-16T21:14:58.002Z,212.98
2024-01-16T21:17:25.379Z,207.10
2024-01-16T21:19:53.527Z,215.50
2024-01-16T21:22:27.550Z,231.02
2024-01-16T21:24:57.912Z,183.45
2024-01-16T21:27:25.106Z,184.68
2024-01-16T21:29:52.722Z,164.07
2024-01-16T21:32:20.345Z,135.00
2024-01-16T21:34:49.081Z,127.38
2024-01-16T21:37:16.334Z,121.65
2024-01-16T21:39:44.285Z,117.28
2024-01-16T21:42:11.534Z,112.60
2024-01-16T21:44:38.860Z,137.38
2024-01-16T21:47:06.039Z,181.32
2024-01-16T21:49:33.148Z,189.50
2024-01-16T21:52:02.249Z,208.95
2024-01-16T21:54:30.107Z,186.25
2024-01-16T21:56:57.380Z,210.98
2024-01-16T21:59:24.649Z,179.32
2024-01-16T22:01:51.828Z,181.38
2024-01-16T22:04:19.203Z,176.98
2024-01-16T22:06:46.338Z,172.90
2024-01-16T22:09:15.605Z,160.57
2024-01-16T22:11:42.881Z,167.02
2024-01-16T22:14:10.097Z,140.68
2024-01-16T22:16:37.322Z,153.15
2024-01-16T22:19:04.792Z,130.45
2024-01-16T22:21:34.085Z,127.40
2024-01-16T22:24:01.736Z,98.40
2024-01-16T22:26:29.301Z,70.68
2024-01-16T22:28:56.743Z,64.15
2024-01-16T22:31:23.861Z,61.13
2024-01-16T22:33:51.214Z,61.08
2024-01-16T22:36:18.732Z,56.15
2024-01-16T22:38:48.897Z,57.33
2024-01-16T22:41:16.909Z,57.40
2024-01-16T22:43:46.382Z,56.88
2024-01-16T22:46:13.460Z,57.33
2024-01-16T22:48:41.637Z,57.13
2024-01-16T22:51:09.236Z,67.47
2024-01-16T22:53:36.860Z,89.22
2024-01-16T22:56:04.266Z,91.30
2024-01-16T22:58:31.552Z,102.50
2024-01-16T23:01:02.314Z,146.13
2024-01-16T23:03:30.710Z,139.82
2024-01-16T23:05:58.309Z,119.28
2024-01-16T23:08:25.488Z,122.85
2024-01-16T23:10:55.212Z,105.60
2024-01-16T23:13:22.939Z,113.22
2024-01-16T23:15:50.141Z,108.55
2024-01-16T23:18:17.432Z,97.68
2024-01-16T23:20:44.992Z,106.25
2024-01-16T23:23:19.093Z,100.43
2024-01-16T23:25:47.208Z,117.13
2024-01-16T23:28:14.566Z,114.25
2024-01-16T23:30:41.768Z,96.55
2024-01-16T23:33:09.487Z,115.70
2024-01-16T23:35:36.873Z,107.18
2024-01-16T23:38:07.125Z,107.85
2024-01-16T23:40:34.205Z,103.90
2024-01-16T23:43:01.879Z,102.32
2024-01-16T23:45:33.659Z,102.15
2024-01-16T23:48:01.430Z,98.47
2024-01-16T23:50:30.252Z,95.72
2024-01-16T23:52:57.577Z,94.18
2024-01-16T23:55:25.051Z,98.03
2024-01-16T23:57:52.266Z,88.40
